Time;durP1;ratioP1;P1;durP2;ratioP2;P2;SDS_P1;SDS_P2;PMS_P1;PMS_P2;Temp;Humidity;BMP_temperature;BMP_pressure;BME280_temperature;BME280_humidity;BME280_pressure;Samples;Min_cycle;Max_cycle;Signal;HPM_P1;HPM_P2
2021/10/17 00:02:16;;;;;;;17.77;12.10;;;5.40;99.90;;;;;;5051516;28;20197;-75
2021/10/17 00:04:44;;;;;;;17.88;12.85;;;5.50;99.90;;;;;;5043671;28;20221;-75
2021/10/17 00:07:11;;;;;;;15.02;11.45;;;5.50;99.90;;;;;;5041539;28;20237;-76
2021/10/17 00:09:38;;;;;;;16.67;13.40;;;5.50;99.90;;;;;;5040869;28;20202;-75
2021/10/17 00:12:06;;;;;;;17.83;12.60;;;5.50;99.90;;;;;;5040958;28;20240;-75
2021/10/17 00:14:33;;;;;;;18.85;13.38;;;5.60;99.90;;;;;;5041858;28;20216;-76
2021/10/17 00:17:00;;;;;;;16.90;13.30;;;5.60;99.90;;;;;;5040490;28;20202;-76
2021/10/17 00:19:27;;;;;;;17.23;12.90;;;5.60;99.90;;;;;;5040224;28;20211;-76
2021/10/17 00:21:55;;;;;;;19.27;13.75;;;5.60;99.90;;;;;;5031763;28;20198;-76
2021/10/17 00:24:22;;;;;;;15.00;12.35;;;5.70;99.90;;;;;;5031202;28;20696;-76
2021/10/17 00:26:48;;;;;;;15.73;12.13;;;5.70;99.90;;;;;;5031158;28;20205;-76
2021/10/17 00:29:15;;;;;;;16.48;11.85;;;5.70;99.90;;;;;;5031279;28;20208;-76
2021/10/17 00:31:42;;;;;;;17.98;13.25;;;5.70;99.90;;;;;;5031465;28;20209;-76
2021/10/17 00:34:09;;;;;;;15.30;12.23;;;5.80;99.90;;;;;;5031389;28;20224;-76
2021/10/17 00:36:36;;;;;;;19.05;13.57;;;5.80;99.90;;;;;;5030651;28;20604;-75
2021/10/17 00:39:06;;;;;;;16.30;12.60;;;5.90;99.90;;;;;;5031552;28;20233;-76
2021/10/17 00:41:33;;;;;;;17.13;13.13;;;5.90;99.90;;;;;;5031109;28;20228;-75
2021/10/17 00:44:01;;;;;;;18.15;13.70;;;5.90;99.90;;;;;;5031271;28;20224;-75
2021/10/17 00:46:27;;;;;;;18.33;14.07;;;6.00;99.90;;;;;;5030404;28;20225;-76
2021/10/17 00:48:55;;;;;;;16.38;13.32;;;6.00;99.90;;;;;;5031328;28;20208;-76
2021/10/17 00:51:22;;;;;;;21.48;13.93;;;6.00;99.90;;;;;;5031124;28;20198;-75
2021/10/17 00:53:49;;;;;;;20.17;13.85;;;6.00;99.90;;;;;;5031023;28;20597;-75
2021/10/17 00:56:17;;;;;;;17.17;13.35;;;6.00;99.90;;;;;;5030929;28;20221;-75
2021/10/17 00:58:43;;;;;;;20.77;14.95;;;6.10;99.90;;;;;;5030535;28;20677;-76
2021/10/17 01:01:10;;;;;;;19.38;14.20;;;6.10;99.90;;;;;;5031019;28;20202;-75
2021/10/17 01:03:37;;;;;;;17.60;12.82;;;6.10;99.90;;;;;;5031055;28;20198;-76
2021/10/17 01:06:09;;;;;;;16.50;13.10;;;6.10;99.90;;;;;;5030110;28;20726;-76
2021/10/17 01:08:35;;;;;;;18.20;12.50;;;6.20;99.90;;;;;;5030992;28;20569;-75
2021/10/17 01:11:02;;;;;;;22.38;13.32;;;6.20;99.90;;;;;;5030855;28;20198;-76
2021/10/17 01:13:30;;;;;;;15.32;11.88;;;6.20;99.90;;;;;;5030342;28;20242;-76
2021/10/17 01:15:58;;;;;;;18.20;13.27;;;6.20;99.90;;;;;;5030162;28;20260;-76
2021/10/17 01:18:26;;;;;;;15.20;12.10;;;6.20;99.90;;;;;;5030436;28;20672;-75
2021/10/17 01:20:54;;;;;;;14.80;12.27;;;6.20;99.90;;;;;;5030791;28;20217;-75
2021/10/17 01:23:22;;;;;;;17.00;12.30;;;6.20;99.90;;;;;;5030407;28;20642;-76
2021/10/17 01:25:49;;;;;;;17.35;12.40;;;6.20;99.90;;;;;;5030032;28;20253;-75
2021/10/17 01:28:16;;;;;;;15.13;11.93;;;6.20;99.90;;;;;;5030267;28;20204;-76
2021/10/17 01:30:43;;;;;;;16.98;14.18;;;6.20;99.90;;;;;;5030568;28;20205;-76
2021/10/17 01:33:10;;;;;;;18.02;12.88;;;6.20;99.90;;;;;;5030292;28;20226;-75
2021/10/17 01:35:37;;;;;;;15.85;12.45;;;6.20;99.90;;;;;;5030300;28;20226;-76
2021/10/17 01:38:06;;;;;;;17.50;12.98;;;6.10;99.90;;;;;;5030099;28;20201;-75
2021/10/17 01:40:33;;;;;;;16.13;12.05;;;6.10;99.90;;;;;;5030368;28;20204;-75
2021/10/17 01:43:00;;;;;;;15.75;11.95;;;6.10;99.90;;;;;;5030487;28;20665;-76
2021/10/17 01:45:27;;;;;;;15.68;11.88;;;6.10;99.90;;;;;;5029797;28;20221;-76
2021/10/17 01:47:54;;;;;;;14.45;12.35;;;6.00;99.90;;;;;;5029841;28;20209;-76
2021/10/17 01:50:22;;;;;;;15.73;11.25;;;6.00;99.90;;;;;;5030239;28;20573;-76
2021/10/17 01:52:49;;;;;;;17.17;12.25;;;6.00;99.90;;;;;;5030294;28;20230;-75
2021/10/17 01:55:18;;;;;;;16.17;11.75;;;6.00;99.90;;;;;;5030125;28;20232;-76
2021/10/17 01:57:45;;;;;;;16.60;11.75;;;6.00;99.90;;;;;;5029715;28;20201;-76
2021/10/17 02:00:13;;;;;;;16.85;11.52;;;5.90;99.90;;;;;;5030112;28;20324;-76
2021/10/17 02:02:39;;;;;;;17.92;13.52;;;5.90;99.90;;;;;;5029929;28;20204;-76
2021/10/17 02:05:07;;;;;;;17.73;12.10;;;6.00;99.90;;;;;;5030328;28;20248;-76
2021/10/17 02:07:34;;;;;;;13.32;11.90;;;6.00;99.90;;;;;;5029459;28;20225;-76
2021/10/17 02:10:00;;;;;;;15.40;12.65;;;6.00;99.90;;;;;;5030885;28;20212;-75
2021/10/17 02:12:29;;;;;;;16.17;12.02;;;6.00;99.90;;;;;;5033753;28;20218;-75
2021/10/17 02:14:55;;;;;;;18.33;12.55;;;6.00;99.90;;;;;;5033828;28;20232;-76
2021/10/17 02:17:22;;;;;;;16.88;12.68;;;6.10;99.90;;;;;;5033266;28;20220;-76
2021/10/17 02:19:49;;;;;;;17.13;12.23;;;6.00;99.90;;;;;;5033857;28;20205;-75
2021/10/17 02:22:16;;;;;;;17.00;13.23;;;6.10;99.90;;;;;;5033636;28;20208;-75
2021/10/17 02:24:43;;;;;;;17.80;13.50;;;6.20;99.90;;;;;;5033730;28;20225;-75
2021/10/17 02:27:10;;;;;;;16.98;11.95;;;6.20;99.90;;;;;;5032844;28;20577;-76
2021/10/17 02:29:38;;;;;;;19.15;13.48;;;6.20;99.90;;;;;;5033745;28;20256;-76
2021/10/17 02:32:05;;;;;;;16.42;11.55;;;6.20;99.90;;;;;;5033405;28;20671;-75
2021/10/17 02:34:32;;;;;;;19.27;12.65;;;6.30;99.90;;;;;;5033523;28;20716;-75
2021/10/17 02:36:59;;;;;;;17.27;12.32;;;6.30;99.90;;;;;;5033164;28;20745;-75
2021/10/17 02:39:26;;;;;;;15.98;12.63;;;6.30;99.90;;;;;;5033650;28;20206;-75
2021/10/17 02:41:53;;;;;;;15.15;11.80;;;6.30;99.90;;;;;;5033570;28;20221;-76
2021/10/17 02:44:19;;;;;;;15.15;12.07;;;6.30;99.90;;;;;;5033092;28;20208;-75
2021/10/17 02:46:47;;;;;;;15.95;11.88;;;6.30;99.90;;;;;;5032969;28;20574;-75
2021/10/17 02:49:14;;;;;;;15.52;11.75;;;6.30;99.90;;;;;;5033153;28;20213;-75
2021/10/17 02:51:41;;;;;;;16.52;13.20;;;6.30;99.90;;;;;;5033441;28;20605;-76
2021/10/17 02:54:08;;;;;;;13.93;11.75;;;6.30;99.90;;;;;;5032797;28;20713;-76
2021/10/17 02:56:34;;;;;;;15.27;11.80;;;6.30;99.90;;;;;;5032765;28;20225;-75
2021/10/17 02:59:01;;;;;;;14.65;12.25;;;6.30;99.90;;;;;;5033161;28;20212;-75
2021/10/17 03:01:28;;;;;;;15.57;11.93;;;6.30;99.90;;;;;;5033394;28;20202;-75
2021/10/17 03:03:56;;;;;;;14.27;11.75;;;6.30;99.90;;;;;;5033015;28;20197;-75
2021/10/17 03:06:26;;;;;;;16.85;12.20;;;6.30;99.90;;;;;;5032138;28;20240;-76
2021/10/17 03:08:53;;;;;;;14.40;12.65;;;6.30;99.90;;;;;;5032944;28;20695;-76
2021/10/17 03:11:20;;;;;;;14.55;11.88;;;6.30;99.90;;;;;;5033013;28;20264;-76
2021/10/17 03:13:47;;;;;;;17.33;12.93;;;6.30;99.90;;;;;;5032712;28;20241;-75
2021/10/17 03:16:14;;;;;;;16.45;13.02;;;6.30;99.90;;;;;;5032440;28;20264;-76
2021/10/17 03:18:41;;;;;;;15.15;11.77;;;6.30;99.90;;;;;;5032899;28;20213;-76
2021/10/17 03:21:09;;;;;;;13.45;11.50;;;6.40;99.90;;;;;;5032420;28;20565;-76
2021/10/17 03:23:35;;;;;;;14.40;11.88;;;6.30;99.90;;;;;;5032674;28;20205;-75
2021/10/17 03:26:02;;;;;;;14.60;12.40;;;6.40;99.90;;;;;;5032037;28;20221;-75
2021/10/17 03:28:29;;;;;;;16.27;12.52;;;6.40;99.90;;;;;;5032689;28;20213;-76
2021/10/17 03:30:56;;;;;;;14.15;12.15;;;6.50;99.90;;;;;;5032517;28;20217;-76
2021/10/17 03:33:22;;;;;;;13.82;11.20;;;6.50;99.90;;;;;;5032450;28;20221;-76
2021/10/17 03:35:49;;;;;;;17.90;14.35;;;6.50;99.90;;;;;;5031933;28;20222;-75
2021/10/17 03:38:17;;;;;;;14.63;12.15;;;6.40;99.90;;;;;;5032312;28;20210;-75
2021/10/17 03:40:44;;;;;;;14.65;11.43;;;6.50;99.90;;;;;;5032432;28;20205;-75
2021/10/17 03:43:11;;;;;;;16.15;11.55;;;6.50;99.90;;;;;;5032159;28;20575;-75
2021/10/17 03:45:39;;;;;;;14.95;10.93;;;6.50;99.90;;;;;;5032252;28;20237;-76
2021/10/17 03:48:06;;;;;;;15.02;12.32;;;6.50;99.90;;;;;;5031896;28;20206;-76
2021/10/17 03:50:33;;;;;;;15.40;12.00;;;6.40;99.90;;;;;;5032375;28;20232;-75
2021/10/17 03:53:00;;;;;;;12.43;11.10;;;6.40;99.90;;;;;;5031987;28;20245;-76
2021/10/17 03:55:28;;;;;;;14.00;11.85;;;6.30;99.90;;;;;;5031959;28;20619;-75
2021/10/17 03:57:55;;;;;;;16.77;12.98;;;6.30;99.90;;;;;;5031400;28;20206;-76
2021/10/17 04:00:22;;;;;;;14.40;11.15;;;6.30;99.90;;;;;;5032027;28;20743;-76
2021/10/17 04:02:50;;;;;;;15.45;12.43;;;6.20;99.90;;;;;;5032099;28;20241;-75
2021/10/17 04:05:17;;;;;;;15.63;12.70;;;6.20;99.90;;;;;;5031548;28;20232;-75
2021/10/17 04:07:43;;;;;;;16.50;11.80;;;6.20;99.90;;;;;;5031221;28;20205;-76
2021/10/17 04:10:10;;;;;;;13.23;11.40;;;6.20;99.90;;;;;;5031568;28;20232;-76
2021/10/17 04:12:39;;;;;;;13.40;10.50;;;6.20;99.90;;;;;;5031646;28;20237;-75
2021/10/17 04:15:06;;;;;;;13.90;12.00;;;6.20;99.90;;;;;;5031545;28;20226;-76
2021/10/17 04:17:33;;;;;;;11.88;10.05;;;6.20;99.90;;;;;;5031025;28;20209;-76
2021/10/17 04:19:59;;;;;;;13.75;11.68;;;6.20;99.90;;;;;;5031522;28;20205;-75
2021/10/17 04:22:26;;;;;;;13.02;11.63;;;6.20;99.90;;;;;;5031479;28;20201;-76
2021/10/17 04:24:53;;;;;;;14.73;12.15;;;6.20;99.90;;;;;;5031456;28;20218;-75
2021/10/17 04:27:20;;;;;;;15.93;11.88;;;6.20;99.90;;;;;;5030912;28;20198;-75
2021/10/17 04:29:48;;;;;;;14.32;12.45;;;6.30;99.90;;;;;;5031558;28;20685;-75
2021/10/17 04:32:15;;;;;;;14.43;10.85;;;6.20;99.90;;;;;;5031074;28;20206;-75
2021/10/17 04:34:41;;;;;;;13.43;10.60;;;6.20;99.90;;;;;;5030907;28;20245;-75
2021/10/17 04:37:08;;;;;;;13.50;11.85;;;6.20;99.90;;;;;;5030973;28;20206;-75
2021/10/17 04:39:36;;;;;;;14.38;12.07;;;6.20;99.90;;;;;;5031474;28;20205;-75
2021/10/17 04:42:04;;;;;;;13.95;11.75;;;6.10;99.90;;;;;;5031135;28;20198;-75
2021/10/17 04:44:30;;;;;;;13.90;10.63;;;6.10;99.90;;;;;;5031260;28;20221;-75
2021/10/17 04:46:58;;;;;;;14.07;11.07;;;6.10;99.90;;;;;;5030846;28;20703;-75
2021/10/17 04:49:26;;;;;;;14.15;11.20;;;6.00;99.90;;;;;;5031141;28;20205;-75
2021/10/17 04:51:53;;;;;;;11.93;10.73;;;6.00;99.90;;;;;;5031420;28;20296;-75
2021/10/17 04:54:19;;;;;;;14.07;11.43;;;6.00;99.90;;;;;;5031095;28;20229;-75
2021/10/17 04:56:46;;;;;;;15.35;13.60;;;6.00;99.90;;;;;;5030501;28;20209;-75
2021/10/17 04:59:16;;;;;;;13.65;11.60;;;6.00;99.90;;;;;;5031201;28;20205;-75
2021/10/17 05:01:43;;;;;;;14.10;10.73;;;6.00;99.90;;;;;;5031340;28;20202;-75
2021/10/17 05:04:11;;;;;;;18.20;12.05;;;6.00;99.90;;;;;;5030856;28;20837;-75
2021/10/17 05:06:38;;;;;;;12.35;10.85;;;5.90;99.90;;;;;;5046887;23;20228;-71
2021/10/17 05:09:05;;;;;;;13.05;11.70;;;5.90;99.90;;;;;;5068892;28;20215;-70
2021/10/17 05:11:31;;;;;;;13.77;10.82;;;5.90;99.90;;;;;;5070383;28;20218;-71
2021/10/17 05:13:58;;;;;;;12.90;11.05;;;5.90;99.90;;;;;;5070075;28;20223;-71
2021/10/17 05:16:25;;;;;;;14.07;10.85;;;5.90;99.90;;;;;;5070025;28;20228;-70
2021/10/17 05:18:51;;;;;;;15.15;11.77;;;5.90;99.90;;;;;;5070436;28;20200;-69
2021/10/17 05:21:19;;;;;;;12.13;10.48;;;5.80;99.90;;;;;;5070344;28;20219;-71
2021/10/17 05:23:46;;;;;;;12.95;11.00;;;5.80;99.90;;;;;;5070298;28;20201;-70
2021/10/17 05:26:13;;;;;;;14.13;11.40;;;5.70;99.90;;;;;;5069551;28;20220;-70
2021/10/17 05:28:39;;;;;;;11.82;10.15;;;5.70;99.90;;;;;;5070430;28;20720;-70
2021/10/17 05:31:06;;;;;;;12.90;11.02;;;5.60;99.90;;;;;;5070107;28;20208;-69
2021/10/17 05:33:36;;;;;;;14.07;11.75;;;5.60;99.90;;;;;;5070161;28;20569;-70
2021/10/17 05:36:03;;;;;;;13.50;11.65;;;5.60;99.90;;;;;;5069737;28;20220;-70
2021/10/17 05:38:31;;;;;;;15.25;12.00;;;5.50;99.90;;;;;;5070184;28;20549;-70
2021/10/17 05:40:58;;;;;;;13.48;10.25;;;5.50;99.90;;;;;;5070236;28;20208;-70
2021/10/17 05:43:25;;;;;;;14.00;11.10;;;5.50;99.90;;;;;;5069791;28;20192;-69
2021/10/17 05:45:52;;;;;;;14.73;10.43;;;5.40;99.90;;;;;;5073639;28;20220;-70
2021/10/17 05:48:18;;;;;;;12.70;10.10;;;5.40;99.90;;;;;;5074328;28;20671;-70
2021/10/17 05:50:45;;;;;;;15.63;12.00;;;5.40;99.90;;;;;;5074469;28;20208;-71
2021/10/17 05:53:12;;;;;;;11.90;10.60;;;5.30;99.90;;;;;;5073634;28;20215;-70
2021/10/17 05:55:41;;;;;;;11.60;10.07;;;5.30;99.90;;;;;;5073603;28;20220;-71
2021/10/17 05:58:08;;;;;;;14.88;10.88;;;5.30;99.90;;;;;;5073862;28;20548;-71
2021/10/17 06:00:34;;;;;;;13.90;10.63;;;5.30;99.90;;;;;;5073805;28;20576;-70
2021/10/17 06:03:01;;;;;;;11.70;10.25;;;5.20;99.90;;;;;;5073825;28;20212;-71
2021/10/17 06:05:28;;;;;;;13.30;10.57;;;5.20;99.90;;;;;;5073799;28;20267;-71
2021/10/17 06:07:55;;;;;;;13.73;11.23;;;5.20;99.90;;;;;;5072807;28;20223;-70
2021/10/17 06:10:22;;;;;;;12.88;10.98;;;5.20;99.90;;;;;;5073994;28;20207;-71
2021/10/17 06:12:50;;;;;;;14.80;11.63;;;5.20;99.90;;;;;;5073617;28;20227;-71
2021/10/17 06:15:17;;;;;;;14.82;11.60;;;5.30;99.90;;;;;;5073471;28;20696;-70
2021/10/17 06:17:44;;;;;;;17.10;11.23;;;5.30;99.90;;;;;;5073033;28;20204;-71
2021/10/17 06:20:11;;;;;;;13.13;10.82;;;5.40;99.90;;;;;;5073784;28;20230;-71
2021/10/17 06:22:38;;;;;;;12.88;10.50;;;5.40;99.90;;;;;;5073521;28;20205;-70
2021/10/17 06:25:06;;;;;;;12.13;10.23;;;5.40;99.90;;;;;;5073122;28;20220;-70
2021/10/17 06:27:33;;;;;;;13.30;11.23;;;5.50;99.90;;;;;;5073139;28;20211;-70
2021/10/17 06:30:02;;;;;;;13.95;10.95;;;5.50;99.90;;;;;;5073146;28;20196;-69
2021/10/17 06:32:28;;;;;;;13.80;11.05;;;5.50;99.90;;;;;;5073202;28;20201;-69
2021/10/17 06:34:55;;;;;;;20.40;11.77;;;5.60;99.90;;;;;;5072981;28;20228;-70
2021/10/17 06:37:22;;;;;;;12.95;10.80;;;5.60;99.90;;;;;;5072730;28;20200;-71
2021/10/17 06:39:48;;;;;;;15.00;10.70;;;5.70;99.90;;;;;;5073132;28;20212;-70
2021/10/17 06:42:15;;;;;;;19.98;11.43;;;5.70;99.90;;;;;;5073021;28;20204;-68
2021/10/17 06:44:42;;;;;;;17.08;12.05;;;5.80;99.90;;;;;;5073123;28;20562;-71
2021/10/17 06:47:10;;;;;;;14.82;11.55;;;5.80;99.90;;;;;;5072373;28;20204;-70
2021/10/17 06:49:37;;;;;;;13.80;11.27;;;5.90;99.90;;;;;;5073186;28;20204;-70
2021/10/17 06:52:04;;;;;;;13.05;11.07;;;5.90;99.90;;;;;;5072398;28;20750;-69
2021/10/17 06:54:31;;;;;;;13.32;10.93;;;6.00;99.90;;;;;;5072308;28;20602;-70
2021/10/17 06:56:58;;;;;;;15.70;10.65;;;6.10;99.90;;;;;;5070763;28;20837;-70
2021/10/17 06:59:24;;;;;;;14.00;12.48;;;6.20;99.90;;;;;;5072711;28;20197;-70
2021/10/17 07:01:51;;;;;;;15.85;12.35;;;6.40;99.90;;;;;;5072818;28;20205;-69
2021/10/17 07:04:19;;;;;;;17.33;12.73;;;6.60;99.90;;;;;;5072857;28;20567;-70
2021/10/17 07:06:46;;;;;;;14.13;11.45;;;6.70;99.90;;;;;;5072261;28;20207;-69
2021/10/17 07:09:12;;;;;;;13.80;11.07;;;6.90;99.90;;;;;;5072840;28;20208;-70
2021/10/17 07:11:39;;;;;;;14.30;11.88;;;7.10;99.90;;;;;;5072799;28;20200;-69
2021/10/17 07:14:06;;;;;;;19.50;11.82;;;7.40;99.90;;;;;;5072151;28;20224;-70
2021/10/17 07:16:33;;;;;;;15.18;12.70;;;7.70;99.90;;;;;;5071779;28;20221;-69
2021/10/17 07:18:59;;;;;;;15.68;12.52;;;7.90;99.90;;;;;;5071931;28;20204;-70
2021/10/17 07:21:28;;;;;;;13.27;11.57;;;8.20;99.90;;;;;;5072145;28;20307;-69
2021/10/17 07:23:55;;;;;;;14.38;11.07;;;8.40;99.90;;;;;;5071740;28;20201;-70
2021/10/17 07:26:21;;;;;;;13.07;11.23;;;8.50;99.90;;;;;;5070227;28;20212;-70
2021/10/17 07:28:48;;;;;;;16.88;13.65;;;8.70;99.90;;;;;;5071295;28;20203;-70
2021/10/17 07:31:15;;;;;;;16.35;12.98;;;8.90;99.90;;;;;;5071157;28;20188;-69
2021/10/17 07:33:41;;;;;;;14.73;12.70;;;9.10;99.90;;;;;;5071125;28;20189;-69
2021/10/17 07:36:09;;;;;;;15.20;12.63;;;9.30;99.90;;;;;;5070355;28;20216;-70
2021/10/17 07:38:37;;;;;;;17.42;13.20;;;9.60;99.90;;;;;;5070873;28;20197;-70
2021/10/17 07:41:03;;;;;;;15.18;12.45;;;9.80;99.90;;;;;;5071532;28;20196;-69
2021/10/17 07:43:30;;;;;;;14.48;11.25;;;10.00;99.90;;;;;;5071549;28;20188;-70
2021/10/17 07:46:01;;;;;;;14.20;12.70;;;10.20;99.90;;;;;;5070949;28;20711;-70
2021/10/17 07:48:28;;;;;;;14.90;12.50;;;10.40;99.90;;;;;;5068224;28;20201;-70
2021/10/17 07:50:55;;;;;;;17.05;13.45;;;10.50;99.90;;;;;;5058828;28;20553;-70
2021/10/17 07:53:21;;;;;;;14.57;13.02;;;10.80;99.90;;;;;;5066252;28;20189;-70
2021/10/17 07:55:49;;;;;;;14.23;12.63;;;11.00;99.90;;;;;;5062472;28;20602;-70
2021/10/17 07:58:16;;;;;;;14.98;12.43;;;11.10;99.90;;;;;;5061405;28;20212;-69
2021/10/17 08:00:43;;;;;;;15.57;13.20;;;11.20;99.90;;;;;;5053978;28;20197;-70
2021/10/17 08:03:09;;;;;;;15.43;13.23;;;11.30;99.90;;;;;;5053767;28;20197;-71
2021/10/17 08:05:36;;;;;;;15.27;13.73;;;11.30;99.90;;;;;;5051027;28;20220;-71
2021/10/17 08:08:03;;;;;;;14.00;12.50;;;11.50;99.90;;;;;;5068803;28;20204;-70
2021/10/17 08:10:30;;;;;;;15.05;13.45;;;11.70;99.90;;;;;;5056698;28;20200;-71
2021/10/17 08:12:59;;;;;;;12.32;11.02;;;11.80;99.90;;;;;;5051084;28;20572;-71
2021/10/17 08:15:26;;;;;;;13.10;11.77;;;12.00;99.90;;;;;;5056291;28;20290;-70
2021/10/17 08:17:54;;;;;;;14.10;12.60;;;12.20;99.90;;;;;;5068309;28;20267;-71
2021/10/17 08:20:21;;;;;;;15.75;13.13;;;12.50;99.90;;;;;;5062880;28;20516;-70
2021/10/17 08:22:48;;;;;;;14.95;12.68;;;12.70;99.90;;;;;;5056531;28;20199;-71
2021/10/17 08:25:15;;;;;;;13.00;11.75;;;12.90;99.90;;;;;;5052312;28;20232;-71
2021/10/17 08:27:43;;;;;;;12.83;11.17;;;13.10;99.90;;;;;;5061975;28;20655;-71
2021/10/17 08:30:12;;;;;;;13.73;12.23;;;13.50;99.90;;;;;;5070674;28;20459;-71
2021/10/17 08:32:38;;;;;;;14.40;12.10;;;13.80;99.90;;;;;;5059626;28;20467;-71
2021/10/17 08:35:06;;;;;;;13.90;12.40;;;13.90;99.90;;;;;;5050404;28;20459;-71
2021/10/17 08:37:33;;;;;;;14.73;12.53;;;13.90;99.90;;;;;;5050061;28;20193;-70
2021/10/17 08:40:00;;;;;;;13.63;12.23;;;13.90;99.90;;;;;;5055547;28;20463;-70
2021/10/17 08:42:27;;;;;;;13.43;12.13;;;13.80;99.90;;;;;;5070228;28;20454;-71
2021/10/17 08:44:56;;;;;;;14.30;12.80;;;13.70;99.90;;;;;;5069510;28;20470;-69
2021/10/17 08:47:26;;;;;;;13.80;11.53;;;13.50;99.90;;;;;;5056463;28;20517;-70
2021/10/17 08:49:55;;;;;;;14.77;11.40;;;13.50;99.90;;;;;;5067955;28;20455;-70
2021/10/17 08:52:21;;;;;;;14.57;11.47;;;13.50;99.90;;;;;;5070102;28;20461;-70
2021/10/17 08:54:49;;;;;;;14.80;11.70;;;13.50;99.90;;;;;;5069576;28;20509;-69
2021/10/17 08:57:16;;;;;;;13.60;12.10;;;13.50;99.90;;;;;;5065522;28;20473;-69
2021/10/17 08:59:46;;;;;;;14.23;11.90;;;13.60;99.90;;;;;;5066805;28;20494;-69
2021/10/17 09:02:14;;;;;;;13.90;12.50;;;13.80;99.90;;;;;;5071077;28;20462;-69
2021/10/17 09:04:44;;;;;;;13.70;12.30;;;14.00;99.90;;;;;;5071262;28;20849;-69
2021/10/17 09:07:19;;;;;;;15.33;11.50;;;14.10;99.90;;;;;;5070832;28;20462;-69
2021/10/17 09:10:05;;;;;;;14.43;13.00;;;14.10;99.90;;;;;;5071451;28;20462;-69
2021/10/17 09:12:32;;;;;;;12.13;10.90;;;14.20;99.90;;;;;;5071186;28;20887;-69
2021/10/17 09:15:19;;;;;;;14.40;12.90;;;14.30;99.90;;;;;;5071579;28;20505;-70
2021/10/17 09:18:09;;;;;;;13.80;12.30;;;14.20;99.90;;;;;;5070869;28;20462;-69
2021/10/17 09:20:51;;;;;;;13.50;12.10;;;14.20;99.90;;;;;;5071305;28;20884;-69
2021/10/17 09:23:32;;;;;;;14.63;13.13;;;14.30;99.90;;;;;;5069982;28;20497;-68
2021/10/17 09:26:00;;;;;;;13.37;12.00;;;14.30;99.90;;;;;;5069239;28;20476;-69
2021/10/17 09:28:29;;;;;;;13.97;12.40;;;14.40;99.90;;;;;;5070155;28;20456;-69
2021/10/17 09:30:59;;;;;;;13.77;12.37;;;14.50;99.90;;;;;;5069541;28;20441;-69
2021/10/17 09:33:25;;;;;;;14.60;13.10;;;14.70;99.90;;;;;;5070080;28;20464;-70
2021/10/17 09:35:54;;;;;;;14.43;12.27;;;14.90;99.90;;;;;;5068682;28;20486;-69
2021/10/17 09:38:24;;;;;;;13.30;11.97;;;15.00;99.90;;;;;;5070147;28;20466;-69
2021/10/17 09:40:51;;;;;;;13.50;12.07;;;15.10;99.90;;;;;;5069605;28;20470;-68
2021/10/17 09:43:23;;;;;;;13.40;12.00;;;15.30;99.90;;;;;;5069718;28;20468;-69
2021/10/17 09:45:50;;;;;;;13.93;12.30;;;15.50;99.90;;;;;;5069071;28;20504;-69
2021/10/17 09:48:29;;;;;;;13.20;11.90;;;15.40;99.90;;;;;;5069146;28;20470;-69
2021/10/17 09:51:02;;;;;;;13.17;11.90;;;15.40;99.90;;;;;;5070104;28;20458;-69
2021/10/17 09:53:41;;;;;;;14.20;12.63;;;15.60;99.90;;;;;;5071442;28;20457;-70
2021/10/17 09:56:08;;;;;;;14.13;12.80;;;15.80;99.90;;;;;;5069707;28;20490;-69
2021/10/17 09:58:36;;;;;;;13.37;11.40;;;15.90;99.90;;;;;;5070029;28;20466;-69
2021/10/17 10:01:02;;;;;;;14.00;12.60;;;16.00;99.90;;;;;;5068835;28;20825;-69
2021/10/17 10:03:31;;;;;;;13.87;12.47;;;16.20;99.90;;;;;;5069311;28;20459;-69
2021/10/17 10:05:58;;;;;;;12.07;10.73;;;16.10;99.90;;;;;;5067943;28;20482;-70
2021/10/17 10:08:27;;;;;;;12.33;11.13;;;16.30;99.90;;;;;;5053887;28;20470;-69
2021/10/17 10:10:54;;;;;;;12.73;11.43;;;16.40;99.90;;;;;;5048520;28;20824;-69
2021/10/17 10:13:23;;;;;;;12.43;11.13;;;16.60;99.90;;;;;;5048315;28;20463;-68
2021/10/17 10:15:50;;;;;;;11.50;10.50;;;16.70;99.90;;;;;;5048445;28;21009;-68
2021/10/17 10:18:21;;;;;;;12.07;10.90;;;16.80;99.90;;;;;;5048838;28;20884;-68
2021/10/17 10:20:48;;;;;;;13.47;12.07;;;17.00;99.90;;;;;;5048716;28;20550;-68
2021/10/17 10:23:16;;;;;;;13.60;12.20;;;17.30;99.90;;;;;;5049011;28;20487;-68
2021/10/17 10:25:44;;;;;;;12.77;11.53;;;17.40;99.90;;;;;;5048376;28;20555;-69
2021/10/17 10:28:12;;;;;;;12.27;11.03;;;17.60;99.90;;;;;;5049035;28;20459;-69
2021/10/17 10:30:40;;;;;;;12.97;11.60;;;17.80;99.90;;;;;;5051050;28;20834;-68
2021/10/17 10:33:15;;;;;;;12.80;11.50;;;18.00;99.90;;;;;;5050216;28;20444;-68
2021/10/17 10:36:03;;;;;;;12.70;11.40;;;18.30;99.90;;;;;;5046515;28;20490;-69
2021/10/17 10:39:15;;;;;;;12.63;11.33;;;18.50;99.90;;;;;;5051990;28;20458;-69
2021/10/17 10:41:53;;;;;;;12.00;10.80;;;18.60;99.90;;;;;;5052170;28;20455;-68
2021/10/17 10:44:22;;;;;;;12.23;11.03;;;18.90;99.90;;;;;;5050403;28;20451;-69
2021/10/17 10:46:50;;;;;;;11.13;10.00;;;19.10;99.90;;;;;;5051218;28;20835;-68
2021/10/17 10:49:43;;;;;;;11.53;10.43;;;19.30;99.90;;;;;;5051424;28;20467;-69
2021/10/17 10:52:28;;;;;;;10.77;9.77;;;19.60;99.90;;;;;;5050691;28;20459;-70
2021/10/17 10:54:57;;;;;;;12.13;10.97;;;19.90;99.90;;;;;;5051058;28;20494;-69
2021/10/17 10:57:26;;;;;;;13.20;11.90;;;20.10;99.90;;;;;;5048019;28;20464;-69
2021/10/17 11:00:02;;;;;;;12.80;11.47;;;20.10;99.90;;;;;;5046851;28;20463;-68
2021/10/17 11:02:29;;;;;;;11.73;10.57;;;20.10;99.90;;;;;;5068170;28;20462;-68
2021/10/17 11:04:58;;;;;;;13.27;12.03;;;20.40;99.90;;;;;;5051376;28;20472;-69
2021/10/17 11:07:30;;;;;;;12.00;10.70;;;20.60;99.90;;;;;;5067712;28;20743;-69
2021/10/17 11:10:19;;;;;;;13.27;11.93;;;20.80;99.90;;;;;;5070056;28;21009;-69
2021/10/17 11:12:48;;;;;;;13.23;11.93;;;20.90;99.90;;;;;;5070317;28;20984;-68
2021/10/17 11:15:17;;;;;;;12.20;10.93;;;20.90;99.90;;;;;;5070016;28;20514;-69
2021/10/17 11:17:52;;;;;;;12.10;10.90;;;21.00;99.90;;;;;;5050278;28;20467;-69
2021/10/17 11:20:21;;;;;;;11.87;10.73;;;21.40;99.90;;;;;;5050845;28;20462;-68
2021/10/17 11:22:49;;;;;;;11.20;10.10;;;21.50;99.90;;;;;;5050396;28;20459;-70
2021/10/17 11:25:17;;;;;;;13.67;12.30;;;21.70;99.90;;;;;;5051425;28;20479;-69
2021/10/17 11:27:44;;;;;;;12.60;11.30;;;21.50;99.90;;;;;;5050629;28;20455;-69
2021/10/17 11:30:23;;;;;;;12.80;11.50;;;21.30;99.90;;;;;;5051453;28;20471;-69
2021/10/17 11:32:50;;;;;;;12.23;11.00;;;21.30;99.90;;;;;;5051335;28;20463;-69
2021/10/17 11:35:25;;;;;;;13.53;12.13;;;21.40;99.90;;;;;;5051275;28;21020;-68
2021/10/17 11:37:52;;;;;;;13.70;12.40;;;21.40;99.90;;;;;;5051019;28;20464;-68
2021/10/17 11:40:20;;;;;;;11.97;10.77;;;21.50;99.90;;;;;;5051482;28;21005;-69
2021/10/17 11:42:48;;;;;;;13.33;12.03;;;21.50;99.90;;;;;;5051304;28;20459;-68
2021/10/17 11:45:19;;;;;;;12.20;10.93;;;21.20;99.90;;;;;;5051191;28;20570;-70
2021/10/17 11:47:49;;;;;;;11.03;10.03;;;21.30;99.90;;;;;;5043525;28;20462;-68
2021/10/17 11:50:19;;;;;;;12.40;11.10;;;21.20;99.90;;;;;;5061815;28;20514;-69
2021/10/17 11:52:54;;;;;;;12.13;10.93;;;21.10;99.90;;;;;;5051018;28;20467;-69
2021/10/17 11:55:32;;;;;;;12.30;11.00;;;21.00;99.90;;;;;;5051326;28;20494;-69
2021/10/17 11:57:59;;;;;;;14.63;10.90;;;21.00;99.90;;;;;;5050592;28;20455;-70
2021/10/17 12:00:28;;;;;;;10.57;9.60;;;21.00;99.90;;;;;;5051243;28;20466;-70
2021/10/17 12:02:57;;;;;;;11.30;10.10;;;20.90;99.90;;;;;;5051152;28;20494;-71
2021/10/17 12:05:25;;;;;;;11.83;10.70;;;21.00;99.90;;;;;;5050826;28;20502;-69
2021/10/17 12:07:55;;;;;;;11.83;10.63;;;21.10;99.90;;;;;;5050605;28;20494;-71
2021/10/17 12:10:24;;;;;;;11.10;10.00;;;21.10;99.90;;;;;;5051244;28;20562;-69
2021/10/17 12:12:51;;;;;;;11.60;10.43;;;21.10;99.90;;;;;;5050725;28;20513;-69
2021/10/17 12:15:18;;;;;;;11.17;9.97;;;21.00;99.90;;;;;;5051245;28;20490;-68
2021/10/17 12:17:58;;;;;;;11.10;10.03;;;21.00;99.90;;;;;;5052664;28;20864;-71
2021/10/17 12:20:26;;;;;;;11.77;10.57;;;20.80;99.90;;;;;;5071107;28;20459;-69
2021/10/17 12:22:55;;;;;;;12.97;11.57;;;20.50;99.90;;;;;;5070507;28;20455;-69
2021/10/17 12:25:22;;;;;;;11.30;10.20;;;20.30;99.90;;;;;;5070839;28;20510;-70
2021/10/17 12:27:50;;;;;;;12.67;11.37;;;20.10;99.90;;;;;;5070422;28;20464;-70
2021/10/17 12:30:20;;;;;;;11.03;9.93;;;20.00;99.90;;;;;;5070506;28;20968;-69
2021/10/17 12:32:50;;;;;;;10.50;9.37;;;19.70;99.90;;;;;;5070685;28;20798;-70
2021/10/17 12:35:27;;;;;;;11.30;10.20;;;19.60;99.90;;;;;;5070551;28;20543;-70
2021/10/17 12:37:54;;;;;;;11.40;10.20;;;19.50;99.90;;;;;;5057735;28;20459;-70
2021/10/17 12:40:21;;;;;;;11.37;10.17;;;19.30;99.90;;;;;;5064166;28;20458;-70